Time;durP1;ratioP1;P1;durP2;ratioP2;P2;SDS_P1;SDS_P2;PMS_P1;PMS_P2;Temp;Humidity;BMP_temperature;BMP_pressure;BME280_temperature;BME280_humidity;BME280_pressure;Samples;Min_cycle;Max_cycle;Signal;HPM_P1;HPM_P2
2021/04/20 00:00:40;;;;;;;5.60;5.15;;;17.20;53.10;;;;;;5054622;28;20193;-69
2021/04/20 00:03:06;;;;;;;5.22;4.80;;;17.10;53.10;;;;;;5054423;28;20212;-65
2021/04/20 00:05:31;;;;;;;5.20;4.80;;;17.20;53.10;;;;;;5021462;28;20205;-67
2021/04/20 00:07:57;;;;;;;5.10;4.60;;;17.20;53.10;;;;;;5054793;28;20512;-68
2021/04/20 00:10:23;;;;;;;5.00;4.60;;;17.10;53.10;;;;;;5071741;28;20202;-63
2021/04/20 00:12:48;;;;;;;5.03;4.60;;;17.10;53.10;;;;;;5072598;28;20174;-63
2021/04/20 00:15:27;;;;;;;5.28;4.88;;;17.10;53.10;;;;;;5054566;28;20175;-68
2021/04/20 00:17:54;;;;;;;5.03;4.63;;;17.10;53.10;;;;;;5055207;28;20174;-70
2021/04/20 00:20:20;;;;;;;5.28;4.78;;;17.10;53.10;;;;;;5037977;28;20201;-64
2021/04/20 00:22:45;;;;;;;5.45;4.95;;;17.10;53.10;;;;;;5053929;28;20222;-69
2021/04/20 00:25:11;;;;;;;4.95;4.55;;;17.10;53.10;;;;;;5054414;28;20646;-67
2021/04/20 00:27:37;;;;;;;5.05;4.55;;;17.10;53.10;;;;;;5054690;28;20174;-68
2021/04/20 00:30:05;;;;;;;4.70;4.30;;;17.10;53.10;;;;;;5037420;28;20672;-68
2021/04/20 00:32:31;;;;;;;5.03;4.63;;;17.10;53.20;;;;;;5054390;28;20202;-68
2021/04/20 00:34:57;;;;;;;5.00;4.60;;;17.00;53.10;;;;;;5072343;28;20692;-70
2021/04/20 00:37:22;;;;;;;5.13;4.57;;;17.10;53.20;;;;;;5071616;28;20174;-68
2021/04/20 00:39:48;;;;;;;5.00;4.60;;;17.10;53.30;;;;;;5072182;28;20208;-64
2021/04/20 00:42:13;;;;;;;5.18;4.78;;;17.10;53.20;;;;;;5038025;28;20171;-70
2021/04/20 00:44:39;;;;;;;5.20;4.80;;;17.00;53.20;;;;;;5040092;28;20232;-69
2021/04/20 00:47:04;;;;;;;5.07;4.65;;;17.10;53.30;;;;;;5058427;28;20556;-70
2021/04/20 00:49:30;;;;;;;4.90;4.50;;;17.00;53.20;;;;;;5058423;28;20681;-63
2021/04/20 00:51:56;;;;;;;5.03;4.63;;;17.00;53.30;;;;;;5057900;28;20641;-68
2021/04/20 00:54:22;;;;;;;5.18;4.78;;;17.00;53.20;;;;;;5058223;28;20167;-63
2021/04/20 00:56:48;;;;;;;5.22;4.82;;;17.00;53.20;;;;;;5041474;28;20585;-64
2021/04/20 00:59:13;;;;;;;5.20;4.80;;;17.00;53.20;;;;;;5041070;28;20210;-71
2021/04/20 01:01:39;;;;;;;5.50;5.05;;;17.00;53.20;;;;;;5041377;28;20175;-70
2021/04/20 01:04:08;;;;;;;5.30;4.90;;;17.00;53.30;;;;;;5041583;28;20170;-70
2021/04/20 01:06:33;;;;;;;5.53;5.10;;;17.00;53.30;;;;;;5024541;28;20686;-68
2021/04/20 01:08:59;;;;;;;5.32;4.82;;;17.00;53.30;;;;;;5075865;28;20254;-68
2021/04/20 01:11:25;;;;;;;5.47;5.03;;;17.00;53.40;;;;;;5041189;28;20171;-63
2021/04/20 01:13:50;;;;;;;4.90;4.50;;;17.00;53.30;;;;;;5040670;28;20528;-68
2021/04/20 01:16:19;;;;;;;6.07;5.55;;;17.00;53.40;;;;;;5041457;28;20170;-69
2021/04/20 01:18:44;;;;;;;5.00;4.60;;;17.00;53.40;;;;;;5057436;28;20248;-69
2021/04/20 01:21:12;;;;;;;5.53;5.03;;;17.00;53.40;;;;;;5057840;28;20178;-65
2021/04/20 01:24:00;;;;;;;9.55;4.95;;;16.90;53.40;;;;;;5057739;28;20186;-69
2021/04/20 01:26:31;;;;;;;5.35;4.95;;;16.90;53.40;;;;;;5074836;28;20158;-66
2021/04/20 01:28:57;;;;;;;5.28;4.82;;;17.00;53.40;;;;;;5075581;28;20170;-69
2021/04/20 01:31:22;;;;;;;4.97;4.57;;;17.00;53.40;;;;;;5041046;28;20169;-65
2021/04/20 01:33:48;;;;;;;5.25;4.85;;;16.90;53.50;;;;;;5057056;28;20261;-68
2021/04/20 01:36:14;;;;;;;5.32;4.82;;;16.90;53.40;;;;;;5041034;28;20193;-68
2021/04/20 01:38:42;;;;;;;5.10;4.70;;;16.90;53.40;;;;;;5057266;28;20207;-65
2021/04/20 01:41:07;;;;;;;5.45;5.05;;;16.90;53.40;;;;;;5056873;28;20682;-70
2021/04/20 01:43:33;;;;;;;5.28;4.78;;;16.90;53.40;;;;;;5074966;28;20240;-71
2021/04/20 01:45:58;;;;;;;5.60;5.10;;;16.90;53.40;;;;;;5057200;28;20170;-70
2021/04/20 01:48:24;;;;;;;5.35;4.95;;;16.90;53.40;;;;;;5056749;28;20170;-68
2021/04/20 01:50:50;;;;;;;5.88;5.28;;;16.90;53.40;;;;;;5075247;28;20181;-68
2021/04/20 01:53:15;;;;;;;5.68;5.18;;;16.90;53.40;;;;;;5057478;28;20163;-69
2021/04/20 01:55:41;;;;;;;5.68;5.18;;;16.90;53.50;;;;;;5055412;28;20166;-69
2021/04/20 01:58:06;;;;;;;5.88;5.38;;;16.90;54.00;;;;;;5040725;28;20571;-70
2021/04/20 02:00:32;;;;;;;5.32;4.82;;;16.90;53.40;;;;;;5040431;28;20170;-65
2021/04/20 02:02:58;;;;;;;5.47;5.00;;;16.90;53.50;;;;;;5056344;28;20174;-67
2021/04/20 02:05:24;;;;;;;5.88;5.30;;;16.90;53.50;;;;;;5074840;28;20178;-70
2021/04/20 02:07:49;;;;;;;5.45;4.95;;;16.90;53.50;;;;;;5024247;28;20178;-67
2021/04/20 02:10:15;;;;;;;5.40;4.90;;;16.90;54.10;;;;;;5040439;28;20178;-68
2021/04/20 02:12:41;;;;;;;5.93;5.32;;;16.90;53.50;;;;;;5075637;28;20178;-68
2021/04/20 02:15:09;;;;;;;5.35;4.95;;;16.90;53.50;;;;;;5040513;28;20262;-66
2021/04/20 02:17:35;;;;;;;4.93;4.53;;;16.90;53.50;;;;;;5074918;28;20183;-70
2021/04/20 02:20:03;;;;;;;5.78;5.28;;;16.80;53.40;;;;;;5056818;28;20221;-64
2021/04/20 02:22:29;;;;;;;5.53;5.10;;;16.90;53.50;;;;;;5052651;28;20215;-63
2021/04/20 02:24:54;;;;;;;5.65;5.15;;;16.80;53.50;;;;;;5053435;28;20233;-62
2021/04/20 02:27:20;;;;;;;6.05;5.55;;;16.80;53.40;;;;;;5037080;28;20266;-69
2021/04/20 02:29:45;;;;;;;6.03;5.53;;;16.80;53.30;;;;;;5036054;28;20250;-69
2021/04/20 02:32:11;;;;;;;5.93;5.50;;;16.80;53.40;;;;;;5036961;28;20175;-64
2021/04/20 02:34:36;;;;;;;6.47;5.90;;;16.80;53.40;;;;;;5054237;28;20643;-63
2021/04/20 02:37:02;;;;;;;5.40;4.95;;;16.80;54.00;;;;;;5052782;28;20202;-68
2021/04/20 02:39:28;;;;;;;5.97;5.47;;;16.80;53.40;;;;;;5052894;28;20203;-66
2021/04/20 02:41:54;;;;;;;5.10;4.70;;;16.80;53.40;;;;;;5053346;28;20175;-70
2021/04/20 02:44:20;;;;;;;6.40;5.88;;;16.80;53.40;;;;;;5052629;28;20264;-68
2021/04/20 02:46:46;;;;;;;5.85;5.38;;;16.80;53.40;;;;;;5036530;28;20163;-64
2021/04/20 02:49:12;;;;;;;5.82;5.32;;;16.80;53.40;;;;;;5036712;28;20187;-63
2021/04/20 02:51:38;;;;;;;5.47;5.07;;;16.80;53.50;;;;;;5053329;28;20174;-68
2021/04/20 02:54:04;;;;;;;5.60;5.20;;;16.80;53.30;;;;;;5054322;28;20256;-67
2021/04/20 02:56:29;;;;;;;5.50;5.10;;;16.80;53.40;;;;;;5052642;28;20210;-69
2021/04/20 02:58:55;;;;;;;6.15;5.55;;;16.80;53.40;;;;;;5019085;28;20704;-70
2021/04/20 03:01:24;;;;;;;5.68;5.18;;;16.80;54.00;;;;;;5019885;28;20204;-64
2021/04/20 03:03:50;;;;;;;5.97;5.47;;;16.80;53.40;;;;;;5053705;28;20260;-63
2021/04/20 03:06:16;;;;;;;5.85;5.35;;;16.80;54.10;;;;;;5052201;28;20583;-69
2021/04/20 03:08:42;;;;;;;6.05;5.55;;;16.70;53.30;;;;;;5053588;28;20217;-67
2021/04/20 03:11:14;;;;;;;5.72;5.22;;;16.70;53.30;;;;;;5036151;28;20254;-68
2021/04/20 03:13:43;;;;;;;5.55;5.15;;;16.70;53.30;;;;;;5036820;28;20170;-63
2021/04/20 03:16:11;;;;;;;5.93;5.43;;;16.70;53.30;;;;;;5036467;28;20167;-65
2021/04/20 03:18:36;;;;;;;5.93;5.43;;;16.70;53.30;;;;;;5035285;28;20209;-70
2021/04/20 03:21:06;;;;;;;6.30;5.70;;;16.70;53.40;;;;;;5052944;28;20607;-63
2021/04/20 03:23:33;;;;;;;5.45;5.05;;;16.70;53.30;;;;;;5035560;28;20223;-68
2021/04/20 03:25:59;;;;;;;6.00;5.50;;;16.70;53.30;;;;;;5035365;28;20171;-64
2021/04/20 03:28:24;;;;;;;6.40;5.90;;;16.70;53.40;;;;;;5052607;28;20658;-68
2021/04/20 03:30:51;;;;;;;6.03;5.53;;;16.70;53.30;;;;;;5052120;28;20175;-69
2021/04/20 03:33:36;;;;;;;6.13;5.60;;;16.70;53.40;;;;;;5035438;28;20164;-66
2021/04/20 03:36:08;;;;;;;6.68;6.10;;;16.70;53.40;;;;;;5035782;28;20270;-69
2021/04/20 03:38:38;;;;;;;6.03;5.53;;;16.60;53.30;;;;;;5035776;28;20202;-68
2021/04/20 03:41:26;;;;;;;6.43;5.88;;;16.70;53.30;;;;;;5051660;28;20175;-63
2021/04/20 03:43:54;;;;;;;5.85;5.35;;;16.70;53.40;;;;;;5035784;28;20190;-70
2021/04/20 03:46:25;;;;;;;5.90;5.40;;;16.70;53.40;;;;;;5052089;28;20167;-62
2021/04/20 03:48:59;;;;;;;6.70;6.13;;;16.60;53.30;;;;;;5035501;28;20212;-63
2021/04/20 03:51:26;;;;;;;5.80;5.30;;;16.60;53.30;;;;;;5035663;28;20162;-68
2021/04/20 03:53:52;;;;;;;6.22;5.72;;;16.60;53.90;;;;;;5034604;28;20619;-68
2021/04/20 03:56:18;;;;;;;6.43;5.93;;;16.60;53.30;;;;;;5035671;28;20205;-69
2021/04/20 03:58:43;;;;;;;6.53;5.97;;;16.60;53.30;;;;;;5035005;28;20230;-70
2021/04/20 04:01:10;;;;;;;5.95;5.45;;;16.60;53.30;;;;;;5034810;28;20206;-65
2021/04/20 04:03:36;;;;;;;6.53;5.93;;;16.60;53.40;;;;;;5035002;28;20182;-70
2021/04/20 04:06:02;;;;;;;6.30;5.80;;;16.60;53.30;;;;;;5051770;28;20175;-64
2021/04/20 04:08:28;;;;;;;6.38;5.78;;;16.60;53.30;;;;;;5051158;28;20692;-62
2021/04/20 04:10:54;;;;;;;6.50;5.90;;;16.60;53.30;;;;;;5051850;28;20171;-62
2021/04/20 04:13:25;;;;;;;6.72;6.22;;;16.60;53.30;;;;;;5051846;28;20542;-63
2021/04/20 04:15:51;;;;;;;6.30;5.80;;;16.60;53.30;;;;;;5034243;28;20631;-67
2021/04/20 04:18:17;;;;;;;6.05;5.55;;;16.60;53.30;;;;;;5018396;28;20659;-68
2021/04/20 04:20:43;;;;;;;6.32;5.80;;;16.60;53.30;;;;;;5051278;28;20186;-62
2021/04/20 04:23:20;;;;;;;6.60;6.00;;;16.60;53.30;;;;;;5050777;28;20293;-63
2021/04/20 04:25:59;;;;;;;5.57;5.18;;;16.60;53.20;;;;;;5035011;28;20177;-65
2021/04/20 04:28:24;;;;;;;6.00;5.50;;;16.50;53.20;;;;;;5051567;28;20202;-64
2021/04/20 04:30:51;;;;;;;6.78;6.13;;;16.50;53.20;;;;;;5050577;28;20252;-67
2021/04/20 04:33:16;;;;;;;6.93;6.22;;;16.60;53.30;;;;;;5018438;28;20171;-67
2021/04/20 04:35:43;;;;;;;5.53;5.13;;;16.50;53.30;;;;;;5017492;28;20171;-65
2021/04/20 04:38:08;;;;;;;6.70;6.10;;;16.50;53.30;;;;;;5034902;28;20167;-67
2021/04/20 04:40:34;;;;;;;6.82;6.22;;;16.50;53.30;;;;;;5034609;28;20516;-64
2021/04/20 04:43:00;;;;;;;6.43;5.93;;;16.50;53.30;;;;;;5034352;28;20381;-63
2021/04/20 04:45:26;;;;;;;6.28;5.78;;;16.50;53.40;;;;;;5034625;28;20207;-63
2021/04/20 04:47:51;;;;;;;6.45;5.93;;;16.50;53.30;;;;;;5051064;28;20258;-62
2021/04/20 04:50:17;;;;;;;6.50;6.00;;;16.50;53.40;;;;;;5050760;28;20676;-65
2021/04/20 04:52:43;;;;;;;6.25;5.75;;;16.50;54.00;;;;;;5017984;28;20178;-67
2021/04/20 04:55:09;;;;;;;6.55;5.95;;;16.50;53.30;;;;;;5034672;28;20328;-69
2021/04/20 04:57:35;;;;;;;6.80;6.22;;;16.50;53.40;;;;;;5051522;28;20172;-69
2021/04/20 05:00:06;;;;;;;6.70;6.10;;;16.50;53.30;;;;;;5051203;28;20260;-64
2021/04/20 05:02:34;;;;;;;6.32;5.82;;;16.50;53.40;;;;;;5051083;28;20273;-63
2021/04/20 05:05:06;;;;;;;6.43;5.82;;;16.50;53.30;;;;;;5050504;28;20203;-64
2021/04/20 05:07:31;;;;;;;6.07;5.57;;;16.50;53.40;;;;;;5034706;28;20171;-62
2021/04/20 05:10:04;;;;;;;6.38;5.88;;;16.50;53.30;;;;;;5051225;28;20239;-63
2021/04/20 05:12:33;;;;;;;7.05;6.35;;;16.50;53.10;;;;;;5034462;28;20560;-62
2021/04/20 05:15:07;;;;;;;6.07;5.45;;;16.60;53.20;;;;;;5034843;28;20182;-63
2021/04/20 05:17:32;;;;;;;5.95;5.45;;;16.70;53.10;;;;;;5051975;28;20623;-63
2021/04/20 05:19:58;;;;;;;6.30;5.70;;;16.80;53.00;;;;;;5050368;28;20345;-69
2021/04/20 05:22:23;;;;;;;6.18;5.68;;;17.10;52.80;;;;;;5050932;28;20215;-63
2021/04/20 05:24:49;;;;;;;5.97;5.47;;;17.40;52.50;;;;;;5050631;28;20176;-68
2021/04/20 05:27:15;;;;;;;5.07;4.68;;;17.60;52.20;;;;;;5033895;28;20175;-67
2021/04/20 05:29:40;;;;;;;4.97;4.57;;;18.00;51.40;;;;;;5050689;28;20612;-64
2021/04/20 05:32:07;;;;;;;5.00;4.60;;;18.20;50.90;;;;;;5054003;28;20160;-67
2021/04/20 05:34:33;;;;;;;5.50;5.00;;;18.40;50.50;;;;;;5054228;28;20619;-64
2021/04/20 05:36:59;;;;;;;4.90;4.50;;;18.60;50.20;;;;;;5038063;28;20174;-67
2021/04/20 05:39:24;;;;;;;4.78;4.38;;;18.70;50.10;;;;;;5054883;28;20672;-63
2021/04/20 05:41:50;;;;;;;4.82;4.45;;;18.80;49.80;;;;;;5055359;28;20181;-63
2021/04/20 05:44:15;;;;;;;4.57;4.28;;;18.80;49.80;;;;;;5055500;28;20178;-63
2021/04/20 05:46:48;;;;;;;4.55;4.15;;;18.80;50.50;;;;;;5053365;28;20168;-63
2021/04/20 05:49:18;;;;;;;5.13;4.63;;;18.80;49.90;;;;;;5022420;28;20186;-63
2021/04/20 05:51:44;;;;;;;4.50;4.20;;;18.70;50.60;;;;;;5037534;28;20178;-62
2021/04/20 05:54:10;;;;;;;4.55;4.15;;;18.80;50.00;;;;;;5037152;28;20159;-68
2021/04/20 05:56:35;;;;;;;4.32;3.95;;;18.80;50.00;;;;;;5053865;28;20167;-69
2021/04/20 05:59:04;;;;;;;4.78;4.38;;;18.80;50.10;;;;;;5053893;28;20256;-63
2021/04/20 06:01:29;;;;;;;4.82;4.45;;;18.80;50.10;;;;;;5036959;28;20164;-64
2021/04/20 06:03:55;;;;;;;4.75;4.35;;;18.80;50.00;;;;;;5053876;28;20174;-70
2021/04/20 06:06:21;;;;;;;4.72;4.32;;;18.80;50.10;;;;;;5037413;28;20176;-62
2021/04/20 06:08:48;;;;;;;4.60;4.20;;;18.80;50.30;;;;;;5036585;28;20179;-62
2021/04/20 06:11:14;;;;;;;4.53;4.00;;;18.70;50.40;;;;;;5037237;28;20689;-66
2021/04/20 06:13:39;;;;;;;4.68;4.28;;;18.60;50.70;;;;;;5020315;28;20180;-63
2021/04/20 06:16:06;;;;;;;5.40;4.90;;;18.60;51.00;;;;;;5052977;28;20171;-65
2021/04/20 06:18:31;;;;;;;5.53;5.00;;;18.50;51.10;;;;;;5036679;28;20689;-68
2021/04/20 06:20:59;;;;;;;5.40;4.35;;;18.40;51.10;;;;;;5037097;28;20175;-69
2021/04/20 06:23:24;;;;;;;5.03;4.53;;;18.40;51.50;;;;;;5036368;28;20215;-69
2021/04/20 06:25:50;;;;;;;5.25;4.63;;;18.50;51.80;;;;;;5036863;28;20175;-69
2021/04/20 06:28:16;;;;;;;6.68;5.00;;;18.50;51.90;;;;;;5036665;28;20536;-68
2021/04/20 06:30:42;;;;;;;4.85;4.38;;;18.50;51.90;;;;;;5054313;28;20298;-70
2021/04/20 06:33:08;;;;;;;8.90;4.47;;;18.60;51.90;;;;;;5037133;28;20182;-70
2021/04/20 06:35:33;;;;;;;5.07;4.47;;;18.60;51.90;;;;;;5035931;28;20646;-69
2021/04/20 06:37:59;;;;;;;5.15;4.70;;;18.60;52.00;;;;;;5036876;28;20190;-70
2021/04/20 06:40:38;;;;;;;6.25;5.35;;;18.60;52.10;;;;;;5036616;28;20206;-69
2021/04/20 06:43:05;;;;;;;5.15;4.65;;;18.50;52.20;;;;;;5052488;28;20308;-69
2021/04/20 06:45:45;;;;;;;4.50;4.10;;;18.50;52.40;;;;;;5052767;28;20175;-69
2021/04/20 06:48:22;;;;;;;5.20;4.63;;;18.40;52.60;;;;;;5054403;28;20178;-66
2021/04/20 06:50:53;;;;;;;5.70;4.97;;;18.40;52.60;;;;;;5052522;28;20171;-66
2021/04/20 06:53:20;;;;;;;5.13;4.63;;;18.40;52.60;;;;;;5037044;28;20186;-63
2021/04/20 06:56:17;;;;;;;5.57;4.40;;;18.50;52.40;;;;;;5052595;28;20174;-63
2021/04/20 06:58:54;;;;;;;5.32;4.55;;;18.50;52.20;;;;;;5053531;28;20287;-64
2021/04/20 07:01:26;;;;;;;4.65;4.25;;;18.60;52.00;;;;;;5053219;28;20195;-64
2021/04/20 07:04:17;;;;;;;5.13;4.63;;;18.60;51.90;;;;;;5035911;28;20189;-64
2021/04/20 07:07:15;;;;;;;6.20;4.75;;;18.60;51.90;;;;;;5052460;28;20171;-64
2021/04/20 07:09:44;;;;;;;7.32;4.90;;;18.50;51.90;;;;;;5052814;28;20179;-65
2021/04/20 07:12:10;;;;;;;5.82;5.18;;;18.40;52.60;;;;;;5052067;28;20167;-64
2021/04/20 07:14:42;;;;;;;5.65;5.05;;;18.40;52.00;;;;;;5052311;28;20167;-67
2021/04/20 07:17:11;;;;;;;5.28;4.88;;;18.40;52.10;;;;;;5052705;28;20517;-66
2021/04/20 07:20:01;;;;;;;5.30;4.90;;;18.40;52.20;;;;;;5052687;28;20211;-65
2021/04/20 07:23:04;;;;;;;5.70;5.20;;;18.40;52.10;;;;;;5063525;28;20223;-65
2021/04/20 07:26:03;;;;;;;5.47;5.00;;;18.40;52.10;;;;;;5072601;28;20170;-64
2021/04/20 07:28:52;;;;;;;5.38;4.88;;;18.40;52.10;;;;;;5073345;28;20162;-66
2021/04/20 07:31:29;;;;;;;5.55;5.05;;;18.40;52.30;;;;;;5056555;28;20182;-66
2021/04/20 07:34:00;;;;;;;5.50;4.80;;;18.40;52.00;;;;;;5039752;28;20261;-66
2021/04/20 07:36:41;;;;;;;6.72;5.32;;;18.40;52.00;;;;;;5073374;28;20170;-65
2021/04/20 07:39:15;;;;;;;6.00;5.45;;;18.40;52.00;;;;;;5072590;28;20282;-66
2021/04/20 07:41:49;;;;;;;5.47;4.97;;;18.40;52.10;;;;;;5038843;28;20201;-66
2021/04/20 07:44:20;;;;;;;5.47;4.97;;;18.40;52.10;;;;;;5073111;28;20166;-66
2021/04/20 07:46:56;;;;;;;5.55;5.15;;;18.40;52.20;;;;;;5072219;28;20301;-65
2021/04/20 07:49:33;;;;;;;5.72;5.15;;;18.40;52.20;;;;;;5040050;28;20193;-65
2021/04/20 07:52:06;;;;;;;5.32;4.80;;;18.40;52.20;;;;;;5055465;28;20163;-64
2021/04/20 07:55:14;;;;;;;5.75;5.25;;;18.40;52.10;;;;;;5037126;28;20171;-64
2021/04/20 07:58:00;;;;;;;5.63;4.95;;;18.40;52.00;;;;;;5027190;28;20548;-65
2021/04/20 08:00:37;;;;;;;7.55;5.20;;;18.40;52.00;;;;;;5039507;28;20213;-66
2021/04/20 08:03:21;;;;;;;5.03;4.53;;;18.40;52.10;;;;;;5038569;28;20174;-64
2021/04/20 08:05:47;;;;;;;5.45;4.82;;;18.40;52.10;;;;;;5054768;28;20177;-64
2021/04/20 08:08:16;;;;;;;5.82;5.22;;;18.40;52.70;;;;;;5072369;28;20167;-64
2021/04/20 08:10:54;;;;;;;5.13;4.63;;;18.40;52.20;;;;;;5021692;28;20714;-64
2021/04/20 08:13:47;;;;;;;5.35;4.85;;;18.30;52.20;;;;;;5054939;28;20174;-64
2021/04/20 08:16:34;;;;;;;5.40;4.90;;;18.40;52.30;;;;;;5072641;28;20173;-65
2021/04/20 08:19:05;;;;;;;5.63;5.15;;;18.30;52.30;;;;;;5054959;28;20318;-65
2021/04/20 08:21:31;;;;;;;5.90;5.30;;;18.30;52.30;;;;;;5071743;28;20230;-66
2021/04/20 08:23:58;;;;;;;6.05;5.55;;;18.30;52.30;;;;;;5038136;28;20200;-66
2021/04/20 08:26:28;;;;;;;5.18;4.68;;;18.40;52.30;;;;;;5054982;28;20649;-61
2021/04/20 08:28:57;;;;;;;5.30;4.90;;;18.30;52.30;;;;;;5037489;28;20214;-67
2021/04/20 08:31:39;;;;;;;6.28;4.70;;;18.40;52.30;;;;;;5038298;28;20170;-66
2021/04/20 08:34:29;;;;;;;5.00;4.60;;;18.40;52.50;;;;;;5054637;28;20174;-66
2021/04/20 08:37:10;;;;;;;5.40;4.90;;;18.40;52.50;;;;;;5053844;28;20179;-66
2021/04/20 08:40:14;;;;;;;5.90;5.30;;;18.40;52.60;;;;;;5037855;28;20213;-67
2021/04/20 08:42:52;;;;;;;5.40;4.90;;;18.40;52.60;;;;;;5053973;28;20210;-72
2021/04/20 08:45:20;;;;;;;5.50;5.03;;;18.50;52.80;;;;;;5038971;28;20176;-66
2021/04/20 08:48:03;;;;;;;5.72;5.22;;;18.40;52.70;;;;;;5054401;28;20630;-69
2021/04/20 08:50:32;;;;;;;5.70;5.20;;;18.40;52.80;;;;;;5054203;28;20626;-68
2021/04/20 08:53:38;;;;;;;5.35;4.85;;;18.50;52.70;;;;;;5054861;28;20218;-65
2021/04/20 08:56:18;;;;;;;5.47;4.97;;;18.50;52.70;;;;;;5070929;28;20187;-65
2021/04/20 08:58:55;;;;;;;5.30;4.90;;;18.50;52.70;;;;;;5022832;28;20233;-67
2021/04/20 09:01:36;;;;;;;5.50;5.00;;;18.50;52.90;;;;;;5072462;28;20224;-66
2021/04/20 09:04:21;;;;;;;5.15;4.68;;;18.60;52.90;;;;;;5072253;28;20251;-67
2021/04/20 09:06:53;;;;;;;5.47;4.95;;;18.60;52.90;;;;;;5058186;28;20212;-67
2021/04/20 09:09:23;;;;;;;6.07;5.47;;;18.50;52.80;;;;;;5058416;28;20170;-72
2021/04/20 09:11:59;;;;;;;5.57;4.97;;;18.50;52.80;;;;;;5040943;28;20167;-66
2021/04/20 09:14:27;;;;;;;5.00;4.60;;;18.50;52.90;;;;;;5058175;28;20173;-66
2021/04/20 09:17:00;;;;;;;5.28;4.70;;;18.50;52.90;;;;;;5041526;28;20186;-67
2021/04/20 09:19:34;;;;;;;5.30;4.80;;;18.60;52.90;;;;;;5041727;28;20206;-71
2021/04/20 09:22:33;;;;;;;7.00;4.72;;;18.60;52.90;;;;;;5041670;28;20222;-68
2021/04/20 09:25:11;;;;;;;5.85;5.25;;;18.60;52.90;;;;;;5074802;28;20181;-65
2021/04/20 09:27:56;;;;;;;4.65;4.35;;;18.60;52.90;;;;;;5057471;28;20162;-66
2021/04/20 09:30:22;;;;;;;7.47;4.72;;;18.60;52.90;;;;;;5057938;28;20176;-72
2021/04/20 09:33:03;;;;;;;5.15;4.75;;;18.60;52.90;;;;;;5040601;28;20167;-66
2021/04/20 09:35:28;;;;;;;4.88;4.38;;;18.60;52.90;;;;;;5041669;28;20624;-68
2021/04/20 09:37:54;;;;;;;5.10;4.60;;;18.60;52.90;;;;;;5058106;28;20254;-72
2021/04/20 09:40:21;;;;;;;4.38;3.97;;;18.70;53.00;;;;;;5040527;28;20711;-70
2021/04/20 09:42:51;;;;;;;5.00;4.50;;;18.70;53.60;;;;;;5057522;28;20171;-66
2021/04/20 09:45:35;;;;;;;5.18;4.78;;;18.70;53.00;;;;;;5024385;28;20174;-72
2021/04/20 09:48:17;;;;;;;5.00;4.60;;;18.70;53.00;;;;;;5024905;28;20166;-75
2021/04/20 09:51:08;;;;;;;4.53;4.13;;;18.70;53.00;;;;;;5075187;28;20175;-71
2021/04/20 09:53:33;;;;;;;4.80;4.40;;;18.80;53.00;;;;;;5056692;28;20198;-69
2021/04/20 09:56:18;;;;;;;5.68;5.10;;;18.80;53.10;;;;;;5057368;28;20680;-66
2021/04/20 09:58:44;;;;;;;6.68;4.53;;;18.80;53.10;;;;;;5057002;28;20603;-75
2021/04/20 10:01:37;;;;;;;4.55;4.15;;;18.80;53.00;;;;;;5040367;28;20691;-67
2021/04/20 10:04:09;;;;;;;6.07;4.97;;;18.80;53.00;;;;;;5030045;28;20193;-73
2021/04/20 10:07:03;;;;;;;5.30;4.70;;;18.80;53.00;;;;;;5056512;28;20583;-73
2021/04/20 10:10:00;;;;;;;4.60;4.20;;;18.90;53.00;;;;;;5074889;28;20207;-67
2021/04/20 10:12:47;;;;;;;4.63;4.10;;;18.90;53.00;;;;;;5020066;28;20186;-67
2021/04/20 10:15:21;;;;;;;5.10;4.50;;;18.90;53.00;;;;;;5074085;28;20175;-67
2021/04/20 10:18:17;;;;;;;5.47;4.90;;;18.90;52.90;;;;;;5040445;28;20609;-69
2021/04/20 10:20:48;;;;;;;4.40;4.03;;;18.90;52.90;;;;;;5053301;28;20194;-71
2021/04/20 10:23:51;;;;;;;4.65;4.25;;;18.90;52.90;;;;;;5056816;28;20229;-68
2021/04/20 10:26:27;;;;;;;9.95;5.32;;;19.00;52.90;;;;;;5074872;28;20174;-70
2021/04/20 10:29:07;;;;;;;5.55;5.00;;;19.00;52.90;;;;;;5056268;28;20220;-62
2021/04/20 10:31:36;;;;;;;5.05;4.65;;;19.00;52.80;;;;;;5058533;28;20618;-69
2021/04/20 10:34:01;;;;;;;4.90;4.50;;;19.10;52.90;;;;;;5040398;28;20652;-63
2021/04/20 10:36:27;;;;;;;6.30;4.43;;;19.10;52.90;;;;;;5056211;28;20155;-66
2021/04/20 10:38:54;;;;;;;4.32;3.92;;;19.10;52.80;;;;;;5040188;28;20710;-63
2021/04/20 10:41:28;;;;;;;4.82;4.43;;;19.10;52.80;;;;;;5040196;28;20224;-64
2021/04/20 10:43:54;;;;;;;4.80;4.40;;;19.10;52.80;;;;;;5056495;28;20215;-62
2021/04/20 10:46:24;;;;;;;4.57;4.18;;;19.10;52.80;;;;;;5040075;28;20614;-67
2021/04/20 10:48:51;;;;;;;4.60;4.20;;;19.20;52.80;;;;;;5040389;28;20180;-61
2021/04/20 10:51:16;;;;;;;4.68;4.28;;;19.20;52.90;;;;;;5040068;28;20177;-70
2021/04/20 10:53:42;;;;;;;5.05;4.55;;;19.20;52.90;;;;;;5056007;28;20167;-65
2021/04/20 10:56:12;;;;;;;5.10;4.57;;;19.20;52.80;;;;;;5022558;28;20188;-75
2021/04/20 10:58:42;;;;;;;4.65;4.18;;;19.30;52.90;;;;;;5039711;28;20657;-68
2021/04/20 11:01:12;;;;;;;4.72;4.32;;;19.30;52.80;;;;;;5067121;28;20174;-71
2021/04/20 11:03:38;;;;;;;5.60;4.45;;;19.30;52.70;;;;;;5058884;28;20161;-71
2021/04/20 11:06:04;;;;;;;4.82;4.03;;;19.40;52.70;;;;;;5059855;28;20193;-71
2021/04/20 11:08:50;;;;;;;5.18;3.85;;;19.40;52.70;;;;;;5059324;28;20213;-67
2021/04/20 11:11:19;;;;;;;4.53;4.13;;;19.40;53.30;;;;;;5075163;28;20174;-69
2021/04/20 11:13:45;;;;;;;4.80;4.13;;;19.40;52.70;;;;;;5075820;28;20268;-66
2021/04/20 11:16:11;;;;;;;4.63;4.22;;;19.40;52.70;;;;;;5076022;28;20589;-70
2021/04/20 11:18:37;;;;;;;4.03;3.72;;;19.40;52.70;;;;;;5041797;28;20233;-67
2021/04/20 11:21:07;;;;;;;4.65;4.25;;;19.40;53.20;;;;;;5075768;28;20208;-69
2021/04/20 11:23:36;;;;;;;3.90;3.60;;;19.40;52.60;;;;;;5042883;28;20225;-68
2021/04/20 11:26:09;;;;;;;4.82;4.35;;;19.40;52.70;;;;;;5059634;28;20165;-68
2021/04/20 11:28:44;;;;;;;5.28;4.28;;;19.50;52.70;;;;;;5074613;28;20174;-67
2021/04/20 11:31:18;;;;;;;5.07;4.32;;;19.50;52.60;;;;;;5093277;28;20256;-69
2021/04/20 11:33:47;;;;;;;5.85;4.22;;;19.50;52.70;;;;;;5093449;28;20174;-68
2021/04/20 11:36:39;;;;;;;4.30;3.92;;;19.50;52.60;;;;;;5093718;28;20253;-69
2021/04/20 11:39:35;;;;;;;4.25;3.85;;;19.50;52.60;;;;;;5066304;28;20288;-69
2021/04/20 11:42:12;;;;;;;4.60;3.60;;;19.50;52.70;;;;;;5091669;28;20258;-73
2021/04/20 11:44:39;;;;;;;4.18;3.85;;;19.50;52.70;;;;;;5074301;28;20178;-68
2021/04/20 11:47:09;;;;;;;4.07;3.78;;;19.50;52.70;;;;;;5037998;28;20618;-67
2021/04/20 11:49:36;;;;;;;4.00;3.70;;;19.50;52.70;;;;;;5064118;28;20199;-66
2021/04/20 11:52:02;;;;;;;4.60;4.00;;;19.60;52.70;;;;;;5058214;28;20577;-66
2021/04/20 11:54:34;;;;;;;4.22;3.85;;;19.50;52.70;;;;;;5074744;28;20261;-67
2021/04/20 11:57:01;;;;;;;4.00;3.70;;;19.50;52.70;;;;;;5058735;28;20542;-68
2021/04/20 11:59:27;;;;;;;4.68;4.28;;;19.50;52.70;;;;;;5074528;28;20207;-68
2021/04/20 12:01:53;;;;;;;4.40;4.00;;;19.60;52.60;;;;;;5055073;28;20163;-67
2021/04/20 12:04:33;;;;;;;3.95;3.63;;;19.60;52.60;;;;;;5055264;28;20198;-67
2021/04/20 12:06:58;;;;;;;3.95;3.65;;;19.60;52.50;;;;;;5054534;28;20169;-67
2021/04/20 12:09:29;;;;;;;4.60;4.20;;;19.60;52.40;;;;;;5038472;28;20556;-67
2021/04/20 12:11:54;;;;;;;4.13;3.83;;;19.70;52.40;;;;;;5055100;28;20732;-67
2021/04/20 12:14:22;;;;;;;4.43;4.03;;;19.70;52.30;;;;;;5037635;28;20174;-68
2021/04/20 12:16:50;;;;;;;3.78;3.42;;;19.70;52.20;;;;;;5054785;28;20262;-71
2021/04/20 12:19:17;;;;;;;4.15;3.75;;;19.80;52.30;;;;;;5058446;28;20198;-72
2021/04/20 12:21:48;;;;;;;4.57;4.22;;;19.80;52.30;;;;;;5053602;28;20203;-68
2021/04/20 12:24:17;;;;;;;3.58;3.30;;;19.80;52.10;;;;;;5037962;28;20171;-68
2021/04/20 12:26:49;;;;;;;4.00;3.60;;;19.80;52.10;;;;;;5071272;28;20189;-67
2021/04/20 12:29:14;;;;;;;4.13;3.83;;;19.80;52.10;;;;;;5054378;28;20182;-68
2021/04/20 12:31:40;;;;;;;4.00;3.50;;;19.80;52.10;;;;;;5037573;28;20170;-68
2021/04/20 12:34:06;;;;;;;4.20;3.50;;;19.90;52.10;;;;;;5053733;28;20185;-67
2021/04/20 12:36:38;;;;;;;3.78;3.47;;;19.90;52.00;;;;;;5054637;28;20174;-67
2021/04/20 12:39:05;;;;;;;4.35;3.92;;;20.00;52.00;;;;;;5055194;28;20289;-67
2021/04/20 12:41:31;;;;;;;3.83;3.53;;;20.00;52.00;;;;;;5057928;28;20677;-73
2021/04/20 12:44:03;;;;;;;5.20;3.78;;;20.00;52.00;;;;;;5075560;28;21249;-67
2021/04/20 12:46:28;;;;;;;4.05;3.75;;;20.00;51.90;;;;;;5075201;28;20217;-66
2021/04/20 12:48:55;;;;;;;4.47;4.07;;;20.10;52.00;;;;;;5058044;28;20584;-66
2021/04/20 12:51:21;;;;;;;4.28;3.97;;;20.10;52.60;;;;;;5058725;28;20527;-70
2021/04/20 12:53:47;;;;;;;4.30;4.00;;;20.10;51.90;;;;;;5078301;28;20177;-78
2021/04/20 12:56:22;;;;;;;4.75;4.35;;;20.10;51.90;;;;;;5096099;28;20175;-75
2021/04/20 12:58:47;;;;;;;4.20;3.90;;;20.20;51.90;;;;;;5078807;28;20201;-66
2021/04/20 13:01:14;;;;;;;4.10;3.80;;;20.20;51.80;;;;;;5045201;28;20173;-67
2021/04/20 13:03:41;;;;;;;4.72;4.38;;;20.20;51.80;;;;;;5061343;28;20637;-77
2021/04/20 13:06:10;;;;;;;4.43;4.10;;;20.20;51.80;;;;;;5061802;28;20204;-68